sensor_id;sensor_type;location;lat;lon;timestamp;temperature;humidity
27540;DHT22;15906;52.046;4.724;2022-11-02T00:00:12;11.80;99.90
27540;DHT22;15906;52.046;4.724;2022-11-02T00:02:38;11.70;99.90
27540;DHT22;15906;52.046;4.724;2022-11-02T00:05:04;11.80;99.90
27540;DHT22;15906;52.046;4.724;2022-11-02T00:07:29;11.70;99.90
27540;DHT22;15906;52.046;4.724;2022-11-02T00:09:55;11.70;99.90
27540;DHT22;15906;52.046;4.724;2022-11-02T00:12:20;11.70;99.90
27540;DHT22;15906;52.046;4.724;2022-11-02T00:14:46;11.70;99.90
27540;DHT22;15906;52.046;4.724;2022-11-02T00:17:11;11.80;99.90
27540;DHT22;15906;52.046;4.724;2022-11-02T00:19:37;11.80;99.90
27540;DHT22;15906;52.046;4.724;2022-11-02T00:22:03;11.80;99.90
27540;DHT22;15906;52.046;4.724;2022-11-02T00:24:29;11.80;99.90
27540;DHT22;15906;52.046;4.724;2022-11-02T00:26:56;11.80;99.90
27540;DHT22;15906;52.046;4.724;2022-11-02T00:29:22;11.80;99.90
27540;DHT22;15906;52.046;4.724;2022-11-02T00:31:49;11.90;99.90
27540;DHT22;15906;52.046;4.724;2022-11-02T00:34:15;11.90;99.90
27540;DHT22;15906;52.046;4.724;2022-11-02T00:36:40;11.70;99.90
27540;DHT22;15906;52.046;4.724;2022-11-02T00:39:06;11.50;99.90
27540;DHT22;15906;52.046;4.724;2022-11-02T00:41:31;11.30;99.90
27540;DHT22;15906;52.046;4.724;2022-11-02T00:43:57;11.20;99.90
27540;DHT22;15906;52.046;4.724;2022-11-02T00:46:22;11.10;99.90
27540;DHT22;15906;52.046;4.724;2022-11-02T00:48:48;11.00;99.90
27540;DHT22;15906;52.046;4.724;2022-11-02T00:51:14;10.90;99.90
27540;DHT22;15906;52.046;4.724;2022-11-02T00:53:39;10.90;99.90
27540;DHT22;15906;52.046;4.724;2022-11-02T00:56:05;10.80;99.90
27540;DHT22;15906;52.046;4.724;2022-11-02T00:58:31;10.80;99.90
27540;DHT22;15906;52.046;4.724;2022-11-02T01:00:56;10.80;99.90
27540;DHT22;15906;52.046;4.724;2022-11-02T01:03:22;10.80;99.90
27540;DHT22;15906;52.046;4.724;2022-11-02T01:05:47;10.80;99.90
27540;DHT22;15906;52.046;4.724;2022-11-02T01:08:13;10.70;99.90
27540;DHT22;15906;52.046;4.724;2022-11-02T01:10:39;10.70;99.90
27540;DHT22;15906;52.046;4.724;2022-11-02T01:13:04;10.70;99.90
27540;DHT22;15906;52.046;4.724;2022-11-02T01:15:30;10.70;99.90
27540;DHT22;15906;52.046;4.724;2022-11-02T01:17:55;10.70;99.90
27540;DHT22;15906;52.046;4.724;2022-11-02T01:20:21;10.90;99.90
27540;DHT22;15906;52.046;4.724;2022-11-02T01:22:46;10.80;99.90
27540;DHT22;15906;52.046;4.724;2022-11-02T01:25:12;10.80;99.90
27540;DHT22;15906;52.046;4.724;2022-11-02T01:27:37;10.80;99.90
27540;DHT22;15906;52.046;4.724;2022-11-02T01:30:04;10.70;99.90
27540;DHT22;15906;52.046;4.724;2022-11-02T01:32:30;10.80;99.90
27540;DHT22;15906;52.046;4.724;2022-11-02T01:34:56;10.70;99.90
27540;DHT22;15906;52.046;4.724;2022-11-02T01:37:21;10.70;99.90
27540;DHT22;15906;52.046;4.724;2022-11-02T01:39:47;10.60;99.90
27540;DHT22;15906;52.046;4.724;2022-11-02T01:42:17;10.50;99.90
27540;DHT22;15906;52.046;4.724;2022-11-02T01:44:43;10.50;99.90
27540;DHT22;15906;52.046;4.724;2022-11-02T01:47:30;10.50;99.90
27540;DHT22;15906;52.046;4.724;2022-11-02T01:50:03;10.50;99.90
27540;DHT22;15906;52.046;4.724;2022-11-02T01:52:33;10.50;99.90
27540;DHT22;15906;52.046;4.724;2022-11-02T01:55:08;10.60;99.90
27540;DHT22;15906;52.046;4.724;2022-11-02T01:57:35;10.60;99.90
27540;DHT22;15906;52.046;4.724;2022-11-02T02:00:08;10.60;99.90
27540;DHT22;15906;52.046;4.724;2022-11-02T02:02:36;10.70;99.90
27540;DHT22;15906;52.046;4.724;2022-11-02T02:05:07;10.70;99.90
27540;DHT22;15906;52.046;4.724;2022-11-02T02:07:35;10.80;99.90
27540;DHT22;15906;52.046;4.724;2022-11-02T02:10:03;10.80;99.90
27540;DHT22;15906;52.046;4.724;2022-11-02T02:12:29;10.90;99.90
27540;DHT22;15906;52.046;4.724;2022-11-02T02:14:55;10.90;99.90
27540;DHT22;15906;52.046;4.724;2022-11-02T02:17:42;11.00;99.90
27540;DHT22;15906;52.046;4.724;2022-11-02T02:20:37;11.10;99.90
27540;DHT22;15906;52.046;4.724;2022-11-02T02:29:08;11.30;99.90
27540;DHT22;15906;52.046;4.724;2022-11-02T02:34:38;11.40;99.90
27540;DHT22;15906;52.046;4.724;2022-11-02T02:37:11;11.40;99.90
27540;DHT22;15906;52.046;4.724;2022-11-02T02:42:18;11.50;99.90
27540;DHT22;15906;52.046;4.724;2022-11-02T02:45:00;11.50;99.90
27540;DHT22;15906;52.046;4.724;2022-11-02T02:47:31;13.30;99.90
27540;DHT22;15906;52.046;4.724;2022-11-02T02:50:13;11.70;99.90
27540;DHT22;15906;52.046;4.724;2022-11-02T02:52:41;11.70;99.90
27540;DHT22;15906;52.046;4.724;2022-11-02T02:55:13;11.70;99.90
27540;DHT22;15906;52.046;4.724;2022-11-02T02:57:40;11.60;99.90
27540;DHT22;15906;52.046;4.724;2022-11-02T03:00:12;11.60;99.90
27540;DHT22;15906;52.046;4.724;2022-11-02T03:02:38;11.60;99.90
27540;DHT22;15906;52.046;4.724;2022-11-02T03:05:25;11.60;99.90
27540;DHT22;15906;52.046;4.724;2022-11-02T03:07:51;11.60;99.90
27540;DHT22;15906;52.046;4.724;2022-11-02T03:10:30;11.50;99.90
27540;DHT22;15906;52.046;4.724;2022-11-02T03:13:17;11.50;99.90
27540;DHT22;15906;52.046;4.724;2022-11-02T03:16:17;11.40;99.90
27540;DHT22;15906;52.046;4.724;2022-11-02T03:19:10;11.40;99.90
27540;DHT22;15906;52.046;4.724;2022-11-02T03:21:40;11.40;99.90
27540;DHT22;15906;52.046;4.724;2022-11-02T03:29:17;11.40;99.90
27540;DHT22;15906;52.046;4.724;2022-11-02T03:31:54;11.50;99.90
27540;DHT22;15906;52.046;4.724;2022-11-02T03:34:37;11.40;99.90
27540;DHT22;15906;52.046;4.724;2022-11-02T03:37:22;11.40;99.90
27540;DHT22;15906;52.046;4.724;2022-11-02T03:39:52;11.40;99.90
27540;DHT22;15906;52.046;4.724;2022-11-02T03:42:26;11.40;99.90
27540;DHT22;15906;52.046;4.724;2022-11-02T03:45:01;11.50;99.90
27540;DHT22;15906;52.046;4.724;2022-11-02T03:47:32;11.50;99.90
27540;DHT22;15906;52.046;4.724;2022-11-02T03:49:59;11.50;99.90
27540;DHT22;15906;52.046;4.724;2022-11-02T03:52:29;11.40;99.90
27540;DHT22;15906;52.046;4.724;2022-11-02T03:55:27;11.40;99.90
27540;DHT22;15906;52.046;4.724;2022-11-02T03:57:51;11.40;99.90
27540;DHT22;15906;52.046;4.724;2022-11-02T04:00:22;11.30;99.90
27540;DHT22;15906;52.046;4.724;2022-11-02T04:02:54;11.20;99.90
27540;DHT22;15906;52.046;4.724;2022-11-02T04:05:27;11.30;99.90
27540;DHT22;15906;52.046;4.724;2022-11-02T04:07:54;11.30;99.90
27540;DHT22;15906;52.046;4.724;2022-11-02T04:10:39;11.30;99.90
27540;DHT22;15906;52.046;4.724;2022-11-02T04:13:25;11.30;99.90
27540;DHT22;15906;52.046;4.724;2022-11-02T04:16:09;11.20;99.90
27540;DHT22;15906;52.046;4.724;2022-11-02T04:18:34;11.20;99.90
27540;DHT22;15906;52.046;4.724;2022-11-02T04:21:18;11.20;99.90
27540;DHT22;15906;52.046;4.724;2022-11-02T04:23:44;11.40;99.90
27540;DHT22;15906;52.046;4.724;2022-11-02T04:26:28;11.30;99.90
27540;DHT22;15906;52.046;4.724;2022-11-02T04:28:53;11.40;99.90
27540;DHT22;15906;52.046;4.724;2022-11-02T04:31:19;11.30;99.90
27540;DHT22;15906;52.046;4.724;2022-11-02T04:33:44;11.30;99.90
27540;DHT22;15906;52.046;4.724;2022-11-02T04:36:10;11.30;99.90
27540;DHT22;15906;52.046;4.724;2022-11-02T04:38:35;11.20;99.90
27540;DHT22;15906;52.046;4.724;2022-11-02T04:43:55;11.20;99.90
27540;DHT22;15906;52.046;4.724;2022-11-02T04:46:23;11.20;99.90
27540;DHT22;15906;52.046;4.724;2022-11-02T04:48:49;11.20;99.90
27540;DHT22;15906;52.046;4.724;2022-11-02T04:51:14;11.10;99.90
27540;DHT22;15906;52.046;4.724;2022-11-02T04:53:40;11.10;99.90
27540;DHT22;15906;52.046;4.724;2022-11-02T04:56:06;11.10;99.90
27540;DHT22;15906;52.046;4.724;2022-11-02T04:58:32;11.10;99.90
27540;DHT22;15906;52.046;4.724;2022-11-02T05:00:57;11.00;99.90
27540;DHT22;15906;52.046;4.724;2022-11-02T05:03:23;11.00;99.90
27540;DHT22;15906;52.046;4.724;2022-11-02T05:05:53;10.90;99.90
27540;DHT22;15906;52.046;4.724;2022-11-02T05:08:19;11.00;99.90
27540;DHT22;15906;52.046;4.724;2022-11-02T05:10:44;10.90;99.90
27540;DHT22;15906;52.046;4.724;2022-11-02T05:13:10;10.90;99.90
27540;DHT22;15906;52.046;4.724;2022-11-02T05:15:38;10.80;99.90
27540;DHT22;15906;52.046;4.724;2022-11-02T05:18:04;10.80;99.90
27540;DHT22;15906;52.046;4.724;2022-11-02T05:20:29;10.80;99.90
27540;DHT22;15906;52.046;4.724;2022-11-02T05:22:55;10.90;99.90
27540;DHT22;15906;52.046;4.724;2022-11-02T05:25:21;10.80;99.90
27540;DHT22;15906;52.046;4.724;2022-11-02T05:27:46;10.70;99.90
27540;DHT22;15906;52.046;4.724;2022-11-02T05:30:12;10.70;99.90
27540;DHT22;15906;52.046;4.724;2022-11-02T05:32:38;10.70;99.90
27540;DHT22;15906;52.046;4.724;2022-11-02T05:35:04;10.60;99.90
27540;DHT22;15906;52.046;4.724;2022-11-02T05:37:29;10.70;99.90
27540;DHT22;15906;52.046;4.724;2022-11-02T05:39:55;10.70;99.90
27540;DHT22;15906;52.046;4.724;2022-11-02T05:42:22;10.60;99.90
27540;DHT22;15906;52.046;4.724;2022-11-02T05:44:48;10.60;99.90
27540;DHT22;15906;52.046;4.724;2022-11-02T05:47:13;10.60;99.90
27540;DHT22;15906;52.046;4.724;2022-11-02T05:49:39;10.50;99.90
27540;DHT22;15906;52.046;4.724;2022-11-02T05:52:04;10.60;99.90
27540;DHT22;15906;52.046;4.724;2022-11-02T05:54:29;10.60;99.90
27540;DHT22;15906;52.046;4.724;2022-11-02T05:56:56;10.50;99.90
27540;DHT22;15906;52.046;4.724;2022-11-02T05:59:21;10.50;99.90
27540;DHT22;15906;52.046;4.724;2022-11-02T06:01:47;10.50;99.90
27540;DHT22;15906;52.046;4.724;2022-11-02T06:04:12;10.50;99.90
27540;DHT22;15906;52.046;4.724;2022-11-02T06:06:38;10.40;99.90
27540;DHT22;15906;52.046;4.724;2022-11-02T06:09:03;10.50;99.90
27540;DHT22;15906;52.046;4.724;2022-11-02T06:11:29;10.50;99.90
27540;DHT22;15906;52.046;4.724;2022-11-02T06:13:54;10.60;99.90
27540;DHT22;15906;52.046;4.724;2022-11-02T06:16:20;10.50;99.90
27540;DHT22;15906;52.046;4.724;2022-11-02T06:18:45;10.50;99.90
27540;DHT22;15906;52.046;4.724;2022-11-02T06:21:11;10.60;99.90
27540;DHT22;15906;52.046;4.724;2022-11-02T06:23:38;10.50;99.90
27540;DHT22;15906;52.046;4.724;2022-11-02T06:26:04;10.50;99.90
27540;DHT22;15906;52.046;4.724;2022-11-02T06:28:30;10.40;99.90
27540;DHT22;15906;52.046;4.724;2022-11-02T06:30:56;10.40;99.90
27540;DHT22;15906;52.046;4.724;2022-11-02T06:33:22;10.40;99.90
27540;DHT22;15906;52.046;4.724;2022-11-02T06:35:52;10.40;99.90
27540;DHT22;15906;52.046;4.724;2022-11-02T06:38:18;10.50;99.90
27540;DHT22;15906;52.046;4.724;2022-11-02T06:40:55;10.50;99.90
27540;DHT22;15906;52.046;4.724;2022-11-02T06:43:21;10.60;99.90
27540;DHT22;15906;52.046;4.724;2022-11-02T06:45:47;10.50;99.90
27540;DHT22;15906;52.046;4.724;2022-11-02T06:48:12;10.50;99.90
27540;DHT22;15906;52.046;4.724;2022-11-02T06:50:38;10.40;99.90
27540;DHT22;15906;52.046;4.724;2022-11-02T06:53:04;10.50;99.90
27540;DHT22;15906;52.046;4.724;2022-11-02T06:55:29;10.40;99.90
27540;DHT22;15906;52.046;4.724;2022-11-02T06:57:55;10.50;99.90
27540;DHT22;15906;52.046;4.724;2022-11-02T07:00:20;10.50;99.90
27540;DHT22;15906;52.046;4.724;2022-11-02T07:03:07;10.50;99.90
27540;DHT22;15906;52.046;4.724;2022-11-02T07:05:34;10.50;99.90
27540;DHT22;15906;52.046;4.724;2022-11-02T07:08:00;10.50;99.90
27540;DHT22;15906;52.046;4.724;2022-11-02T07:10:26;10.50;99.90
27540;DHT22;15906;52.046;4.724;2022-11-02T07:12:56;10.50;99.90
27540;DHT22;15906;52.046;4.724;2022-11-02T07:15:23;10.40;99.90
27540;DHT22;15906;52.046;4.724;2022-11-02T07:17:49;10.50;99.90
27540;DHT22;15906;52.046;4.724;2022-11-02T07:20:16;10.40;99.90
27540;DHT22;15906;52.046;4.724;2022-11-02T07:22:54;10.40;99.90
27540;DHT22;15906;52.046;4.724;2022-11-02T07:25:20;10.40;99.90
27540;DHT22;15906;52.046;4.724;2022-11-02T07:27:45;10.50;99.90
27540;DHT22;15906;52.046;4.724;2022-11-02T07:30:11;10.40;99.90
27540;DHT22;15906;52.046;4.724;2022-11-02T07:32:43;10.40;99.90
27540;DHT22;15906;52.046;4.724;2022-11-02T07:35:11;10.40;99.90
27540;DHT22;15906;52.046;4.724;2022-11-02T07:37:37;10.40;99.90
27540;DHT22;15906;52.046;4.724;2022-11-02T07:40:05;10.40;99.90
27540;DHT22;15906;52.046;4.724;2022-11-02T07:42:31;10.40;99.90
27540;DHT22;15906;52.046;4.724;2022-11-02T07:44:56;10.40;99.90
27540;DHT22;15906;52.046;4.724;2022-11-02T07:47:22;10.50;99.90
27540;DHT22;15906;52.046;4.724;2022-11-02T07:49:48;10.50;99.90
27540;DHT22;15906;52.046;4.724;2022-11-02T07:52:13;10.50;99.90
27540;DHT22;15906;52.046;4.724;2022-11-02T07:54:39;10.50;99.90
27540;DHT22;15906;52.046;4.724;2022-11-02T07:57:04;10.50;99.90
27540;DHT22;15906;52.046;4.724;2022-11-02T07:59:30;10.60;99.90
27540;DHT22;15906;52.046;4.724;2022-11-02T08:01:55;10.60;99.90
27540;DHT22;15906;52.046;4.724;2022-11-02T08:04:21;10.60;99.90
27540;DHT22;15906;52.046;4.724;2022-11-02T08:06:46;10.70;99.90
27540;DHT22;15906;52.046;4.724;2022-11-02T08:09:12;10.90;99.90
27540;DHT22;15906;52.046;4.724;2022-11-02T08:11:40;11.00;99.90
27540;DHT22;15906;52.046;4.724;2022-11-02T08:14:05;11.00;99.90
27540;DHT22;15906;52.046;4.724;2022-11-02T08:16:31;11.10;99.90
27540;DHT22;15906;52.046;4.724;2022-11-02T08:18:56;11.10;99.90
27540;DHT22;15906;52.046;4.724;2022-11-02T08:21:24;11.20;99.90
27540;DHT22;15906;52.046;4.724;2022-11-02T08:23:49;11.30;99.90
27540;DHT22;15906;52.046;4.724;2022-11-02T08:26:15;11.40;99.90
27540;DHT22;15906;52.046;4.724;2022-11-02T08:28:40;11.30;99.90
27540;DHT22;15906;52.046;4.724;2022-11-02T08:31:09;11.40;99.90
27540;DHT22;15906;52.046;4.724;2022-11-02T08:33:36;11.50;99.90
27540;DHT22;15906;52.046;4.724;2022-11-02T08:36:02;11.40;99.90
27540;DHT22;15906;52.046;4.724;2022-11-02T08:38:29;11.50;99.90
27540;DHT22;15906;52.046;4.724;2022-11-02T08:40:55;11.50;99.90
27540;DHT22;15906;52.046;4.724;2022-11-02T08:43:21;11.60;99.90
27540;DHT22;15906;52.046;4.724;2022-11-02T08:45:47;11.70;99.90
27540;DHT22;15906;52.046;4.724;2022-11-02T08:48:12;11.70;99.90
27540;DHT22;15906;52.046;4.724;2022-11-02T08:50:38;11.70;99.90
27540;DHT22;15906;52.046;4.724;2022-11-02T08:53:04;11.80;99.90
27540;DHT22;15906;52.046;4.724;2022-11-02T08:55:30;12.00;99.90
27540;DHT22;15906;52.046;4.724;2022-11-02T08:57:57;12.20;99.90
27540;DHT22;15906;52.046;4.724;2022-11-02T09:00:26;12.50;99.90
27540;DHT22;15906;52.046;4.724;2022-11-02T09:03:11;12.70;99.90
27540;DHT22;15906;52.046;4.724;2022-11-02T09:05:42;12.90;99.90
27540;DHT22;15906;52.046;4.724;2022-11-02T09:08:16;13.20;99.90
27540;DHT22;15906;52.046;4.724;2022-11-02T09:10:42;13.30;99.90
27540;DHT22;15906;52.046;4.724;2022-11-02T09:13:13;13.50;99.90
27540;DHT22;15906;52.046;4.724;2022-11-02T09:15:39;13.50;99.90
27540;DHT22;15906;52.046;4.724;2022-11-02T09:18:06;13.80;99.90
27540;DHT22;15906;52.046;4.724;2022-11-02T09:20:33;14.00;99.90
27540;DHT22;15906;52.046;4.724;2022-11-02T09:22:58;14.00;99.90
27540;DHT22;15906;52.046;4.724;2022-11-02T09:25:24;13.80;99.90
27540;DHT22;15906;52.046;4.724;2022-11-02T09:27:55;13.90;99.90
27540;DHT22;15906;52.046;4.724;2022-11-02T09:30:21;13.90;99.90
27540;DHT22;15906;52.046;4.724;2022-11-02T09:32:55;13.90;99.90
27540;DHT22;15906;52.046;4.724;2022-11-02T09:35:20;13.80;99.90
27540;DHT22;15906;52.046;4.724;2022-11-02T09:37:46;13.90;99.90
27540;DHT22;15906;52.046;4.724;2022-11-02T09:40:13;13.90;99.90
27540;DHT22;15906;52.046;4.724;2022-11-02T09:45:20;14.10;99.90
27540;DHT22;15906;52.046;4.724;2022-11-02T09:47:56;14.40;99.90
27540;DHT22;15906;52.046;4.724;2022-11-02T09:50:24;14.50;99.90
27540;DHT22;15906;52.046;4.724;2022-11-02T09:53:01;14.70;99.90
27540;DHT22;15906;52.046;4.724;2022-11-02T09:55:31;14.80;99.90
27540;DHT22;15906;52.046;4.724;2022-11-02T09:58:02;14.90;99.90
27540;DHT22;15906;52.046;4.724;2022-11-02T10:00:34;14.70;99.90
27540;DHT22;15906;52.046;4.724;2022-11-02T10:05:45;14.70;99.90
27540;DHT22;15906;52.046;4.724;2022-11-02T10:09:06;14.60;99.90
27540;DHT22;15906;52.046;4.724;2022-11-02T10:14:34;15.20;99.90
27540;DHT22;15906;52.046;4.724;2022-11-02T10:17:13;15.40;99.90
27540;DHT22;15906;52.046;4.724;2022-11-02T10:19:41;15.60;99.90
27540;DHT22;15906;52.046;4.724;2022-11-02T10:22:12;15.50;99.90
27540;DHT22;15906;52.046;4.724;2022-11-02T10:24:41;15.50;99.90
27540;DHT22;15906;52.046;4.724;2022-11-02T10:27:24;15.70;99.90
27540;DHT22;15906;52.046;4.724;2022-11-02T10:30:15;16.00;99.90
27540;DHT22;15906;52.046;4.724;2022-11-02T10:32:40;15.60;99.90
27540;DHT22;15906;52.046;4.724;2022-11-02T10:49:20;15.60;99.90
27540;DHT22;15906;52.046;4.724;2022-11-02T10:51:48;15.90;99.90
27540;DHT22;15906;52.046;4.724;2022-11-02T10:54:14;16.20;99.90
27540;DHT22;15906;52.046;4.724;2022-11-02T10:56:42;16.40;99.90
27540;DHT22;15906;52.046;4.724;2022-11-02T10:59:15;16.40;99.90
27540;DHT22;15906;52.046;4.724;2022-11-02T11:04:32;16.50;99.90
27540;DHT22;15906;52.046;4.724;2022-11-02T11:07:04;16.30;99.90
27540;DHT22;15906;52.046;4.724;2022-11-02T11:09:53;16.20;99.90
27540;DHT22;15906;52.046;4.724;2022-11-02T11:12:33;16.20;99.90
27540;DHT22;15906;52.046;4.724;2022-11-02T11:15:02;15.90;99.90
27540;DHT22;15906;52.046;4.724;2022-11-02T11:17:36;15.40;99.90
27540;DHT22;15906;52.046;4.724;2022-11-02T11:20:05;15.30;99.90
27540;DHT22;15906;52.046;4.724;2022-11-02T11:22:39;14.90;99.90
27540;DHT22;15906;52.046;4.724;2022-11-02T11:27:53;15.00;99.90
27540;DHT22;15906;52.046;4.724;2022-11-02T11:30:24;15.40;99.90
27540;DHT22;15906;52.046;4.724;2022-11-02T11:32:50;15.70;99.90
27540;DHT22;15906;52.046;4.724;2022-11-02T11:35:18;16.00;99.90
27540;DHT22;15906;52.046;4.724;2022-11-02T11:38:07;16.20;99.90
27540;DHT22;15906;52.046;4.724;2022-11-02T11:40:38;16.10;99.90
27540;DHT22;15906;52.046;4.724;2022-11-02T11:43:13;16.00;99.90
27540;DHT22;15906;52.046;4.724;2022-11-02T11:45:56;15.90;99.90
27540;DHT22;15906;52.046;4.724;2022-11-02T11:48:45;16.10;99.90
27540;DHT22;15906;52.046;4.724;2022-11-02T11:51:29;16.00;99.90
27540;DHT22;15906;52.046;4.724;2022-11-02T11:54:28;16.10;99.90
27540;DHT22;15906;52.046;4.724;2022-11-02T11:56:56;16.00;99.90
27540;DHT22;15906;52.046;4.724;2022-11-02T11:59:30;16.20;99.90
27540;DHT22;15906;52.046;4.724;2022-11-02T12:01:58;16.00;99.90
27540;DHT22;15906;52.046;4.724;2022-11-02T12:04:28;15.90;99.90
27540;DHT22;15906;52.046;4.724;2022-11-02T12:07:18;15.80;99.90
27540;DHT22;15906;52.046;4.724;2022-11-02T12:10:00;16.00;99.90
27540;DHT22;15906;52.046;4.724;2022-11-02T12:21:14;16.10;99.90
27540;DHT22;15906;52.046;4.724;2022-11-02T12:26:16;15.90;99.90
27540;DHT22;15906;52.046;4.724;2022-11-02T12:28:44;16.00;99.90
27540;DHT22;15906;52.046;4.724;2022-11-02T12:31:20;16.20;99.90
27540;DHT22;15906;52.046;4.724;2022-11-02T12:34:02;16.30;99.90
27540;DHT22;15906;52.046;4.724;2022-11-02T12:39:41;16.20;99.90
27540;DHT22;15906;52.046;4.724;2022-11-02T12:42:16;16.10;99.90
27540;DHT22;15906;52.046;4.724;2022-11-02T12:45:04;15.80;99.90
27540;DHT22;15906;52.046;4.724;2022-11-02T12:50:23;15.70;99.90
27540;DHT22;15906;52.046;4.724;2022-11-02T12:55:33;15.20;99.90
27540;DHT22;15906;52.046;4.724;2022-11-02T12:58:04;15.20;99.90
27540;DHT22;15906;52.046;4.724;2022-11-02T13:00:35;15.00;99.90
27540;DHT22;15906;52.046;4.724;2022-11-02T13:06:01;15.00;99.90
27540;DHT22;15906;52.046;4.724;2022-11-02T13:08:35;15.20;99.90
27540;DHT22;15906;52.046;4.724;2022-11-02T13:11:29;15.30;99.90
27540;DHT22;15906;52.046;4.724;2022-11-02T13:13:57;15.30;99.90
27540;DHT22;15906;52.046;4.724;2022-11-02T13:16:35;15.10;99.90
27540;DHT22;15906;52.046;4.724;2022-11-02T13:19:02;14.90;99.90
27540;DHT22;15906;52.046;4.724;2022-11-02T13:21:37;14.80;99.90
27540;DHT22;15906;52.046;4.724;2022-11-02T13:24:05;14.70;99.90
27540;DHT22;15906;52.046;4.724;2022-11-02T13:26:37;14.70;99.90
27540;DHT22;15906;52.046;4.724;2022-11-02T13:29:16;14.70;99.90
27540;DHT22;15906;52.046;4.724;2022-11-02T13:31:56;14.70;99.90
27540;DHT22;15906;52.046;4.724;2022-11-02T13:34:42;14.50;99.90
27540;DHT22;15906;52.046;4.724;2022-11-02T13:39:49;14.50;99.90
27540;DHT22;15906;52.046;4.724;2022-11-02T13:45:47;14.40;99.90
27540;DHT22;15906;52.046;4.724;2022-11-02T13:48:38;14.40;99.90
27540;DHT22;15906;52.046;4.724;2022-11-02T13:51:19;14.50;99.90
27540;DHT22;15906;52.046;4.724;2022-11-02T13:53:53;14.50;99.90
27540;DHT22;15906;52.046;4.724;2022-11-02T13:56:26;14.50;99.90
27540;DHT22;15906;52.046;4.724;2022-11-02T13:59:19;14.50;99.90
27540;DHT22;15906;52.046;4.724;2022-11-02T14:01:46;14.40;99.90
27540;DHT22;15906;52.046;4.724;2022-11-02T14:04:13;14.50;99.90
27540;DHT22;15906;52.046;4.724;2022-11-02T14:12:11;14.20;99.90
27540;DHT22;15906;52.046;4.724;2022-11-02T14:20:32;14.00;99.90
27540;DHT22;15906;52.046;4.724;2022-11-02T14:33:48;14.00;99.90
27540;DHT22;15906;52.046;4.724;2022-11-02T14:39:09;14.00;99.90
27540;DHT22;15906;52.046;4.724;2022-11-02T14:41:53;13.90;99.90
27540;DHT22;15906;52.046;4.724;2022-11-02T14:47:16;13.80;99.90
27540;DHT22;15906;52.046;4.724;2022-11-02T14:49:48;13.70;99.90
27540;DHT22;15906;52.046;4.724;2022-11-02T14:52:31;13.90;99.90
27540;DHT22;15906;52.046;4.724;2022-11-02T14:55:03;13.80;99.90
27540;DHT22;15906;52.046;4.724;2022-11-02T14:57:37;13.80;99.90
27540;DHT22;15906;52.046;4.724;2022-11-02T15:02:42;13.70;99.90
27540;DHT22;15906;52.046;4.724;2022-11-02T15:05:19;13.70;99.90
27540;DHT22;15906;52.046;4.724;2022-11-02T15:07:59;13.50;99.90
27540;DHT22;15906;52.046;4.724;2022-11-02T15:15:42;13.50;99.90
27540;DHT22;15906;52.046;4.724;2022-11-02T15:18:30;13.40;99.90
27540;DHT22;15906;52.046;4.724;2022-11-02T15:23:57;13.30;99.90
27540;DHT22;15906;52.046;4.724;2022-11-02T15:29:02;13.30;99.90
27540;DHT22;15906;52.046;4.724;2022-11-02T15:31:29;13.40;99.90
27540;DHT22;15906;52.046;4.724;2022-11-02T15:34:00;13.40;99.90
27540;DHT22;15906;52.046;4.724;2022-11-02T15:36:28;13.30;99.90
27540;DHT22;15906;52.046;4.724;2022-11-02T15:38:55;13.30;99.90
27540;DHT22;15906;52.046;4.724;2022-11-02T15:41:37;13.30;99.90
27540;DHT22;15906;52.046;4.724;2022-11-02T15:44:25;13.30;99.90
27540;DHT22;15906;52.046;4.724;2022-11-02T16:01:18;13.00;99.90
27540;DHT22;15906;52.046;4.724;2022-11-02T16:03:56;13.10;99.90
27540;DHT22;15906;52.046;4.724;2022-11-02T16:06:24;13.00;99.90
27540;DHT22;15906;52.046;4.724;2022-11-02T16:08:50;13.00;99.90
27540;DHT22;15906;52.046;4.724;2022-11-02T16:11:17;13.00;99.90
27540;DHT22;15906;52.046;4.724;2022-11-02T16:13:44;13.00;99.90
27540;DHT22;15906;52.046;4.724;2022-11-02T16:16:13;12.90;99.90
27540;DHT22;15906;52.046;4.724;2022-11-02T16:18:40;12.80;99.90
27540;DHT22;15906;52.046;4.724;2022-11-02T16:21:16;12.80;99.90
27540;DHT22;15906;52.046;4.724;2022-11-02T16:23:48;12.70;99.90
27540;DHT22;15906;52.046;4.724;2022-11-02T16:26:21;12.70;99.90
27540;DHT22;15906;52.046;4.724;2022-11-02T16:28:53;12.70;99.90
27540;DHT22;15906;52.046;4.724;2022-11-02T16:31:26;12.60;99.90
27540;DHT22;15906;52.046;4.724;2022-11-02T16:34:20;12.60;99.90
27540;DHT22;15906;52.046;4.724;2022-11-02T16:36:47;12.60;99.90
27540;DHT22;15906;52.046;4.724;2022-11-02T16:39:19;12.60;99.90
27540;DHT22;15906;52.046;4.724;2022-11-02T16:41:50;12.60;99.90
27540;DHT22;15906;52.046;4.724;2022-11-02T16:44:29;12.50;99.90
27540;DHT22;15906;52.046;4.724;2022-11-02T16:49:33;12.60;99.90
27540;DHT22;15906;52.046;4.724;2022-11-02T16:52:14;12.60;99.90
27540;DHT22;15906;52.046;4.724;2022-11-02T16:54:42;12.60;99.90
27540;DHT22;15906;52.046;4.724;2022-11-02T16:57:15;12.60;99.90
27540;DHT22;15906;52.046;4.724;2022-11-02T16:59:52;12.50;99.90
27540;DHT22;15906;52.046;4.724;2022-11-02T17:02:28;12.50;99.90
27540;DHT22;15906;52.046;4.724;2022-11-02T17:04:56;12.50;99.90
27540;DHT22;15906;52.046;4.724;2022-11-02T17:07:35;12.40;99.90
27540;DHT22;15906;52.046;4.724;2022-11-02T17:10:04;12.40;99.90
27540;DHT22;15906;52.046;4.724;2022-11-02T17:12:39;12.40;99.90
27540;DHT22;15906;52.046;4.724;2022-11-02T17:15:26;12.40;99.90
27540;DHT22;15906;52.046;4.724;2022-11-02T17:20:34;12.40;99.90
27540;DHT22;15906;52.046;4.724;2022-11-02T17:23:06;12.40;99.90
27540;DHT22;15906;52.046;4.724;2022-11-02T17:25:34;12.40;99.90
27540;DHT22;15906;52.046;4.724;2022-11-02T17:28:02;12.40;99.90
27540;DHT22;15906;52.046;4.724;2022-11-02T17:33:14;12.40;99.90
27540;DHT22;15906;52.046;4.724;2022-11-02T17:35:45;12.30;99.90
27540;DHT22;15906;52.046;4.724;2022-11-02T17:38:11;12.30;99.90
27540;DHT22;15906;52.046;4.724;2022-11-02T17:40:37;12.40;99.90
27540;DHT22;15906;52.046;4.724;2022-11-02T17:43:03;12.30;99.90
27540;DHT22;15906;52.046;4.724;2022-11-02T17:45:29;12.30;99.90
27540;DHT22;15906;52.046;4.724;2022-11-02T17:47:56;12.30;99.90
27540;DHT22;15906;52.046;4.724;2022-11-02T17:50:24;12.30;99.90
27540;DHT22;15906;52.046;4.724;2022-11-02T17:52:51;12.20;99.90
27540;DHT22;15906;52.046;4.724;2022-11-02T17:55:22;12.30;99.90
27540;DHT22;15906;52.046;4.724;2022-11-02T17:57:48;12.30;99.90
27540;DHT22;15906;52.046;4.724;2022-11-02T18:00:15;12.30;99.90
27540;DHT22;15906;52.046;4.724;2022-11-02T18:02:48;12.30;99.90
27540;DHT22;15906;52.046;4.724;2022-11-02T18:05:23;12.30;99.90
27540;DHT22;15906;52.046;4.724;2022-11-02T18:07:50;12.30;99.90
27540;DHT22;15906;52.046;4.724;2022-11-02T18:10:17;12.40;99.90